Gables by the Sea, Florida
Current Conditions -  °F | °C
As of 4:53 PM on Friday 24 Oct 2014 (Local Time) from KTMB Reporting Station
Overcast Overcast  
Wind Chill: 81°   Ceiling: 3800
Heat Index: 84°   Visibility: 10mi
Dew Point: 70°   Wind: 15mph
Humidity: 69%   Direction: 30°NNE
Pressure: 29.81"   Gusts: 25mph
Location:  25.6668°N, 80.2981°W
Report Text: KTMB 242053Z 03013G22KT 10SM FEW023 OVC038 27/21 A2981 RMK AO2 SLP092 60012 T02720211 56014
Loading
Personal Weather Stations






























Interactive Weather Map
Tropical Storm Tracking
New forecast layout! Learn more

10-Day Weather Forecast

Advertisements
Track Severe Weather on mobile